CheckWX is a tool to help pilots better visualize weather data.  It is not intended as a substitute for an official pre-flight weather briefing.

12:42:58 UTC

KDHN TAF
Dothan Regional Airport
Dothan, Alabama, USA
KDHN 171120Z 1712/1812 35006KT P6SM SCT030

Nov-17@
12:00 UTC

Nov-17 @ 12:00 UTC

Nov-18@
12:00 UTC

Nov-18 @ 12:00 UTC

KDHN 171120Z 1712/1812 35006KT P6SM SCT030
Wind
  • 350° at 6 KTS
Cloud Levels
  • Scattered at 3,000' AGL